sensor_id;sensor_type;location;lat;lon;timestamp;temperature;humidity
12634;DHT22;6382;48.614;8.880;2022-09-13T00:00:42;14.60;99.90
12634;DHT22;6382;48.614;8.880;2022-09-13T00:03:10;13.80;99.90
12634;DHT22;6382;48.614;8.880;2022-09-13T00:05:40;11.70;99.90
12634;DHT22;6382;48.614;8.880;2022-09-13T00:08:09;13.40;99.90
12634;DHT22;6382;48.614;8.880;2022-09-13T00:10:37;15.60;99.90
12634;DHT22;6382;48.614;8.880;2022-09-13T00:13:05;13.40;99.90
12634;DHT22;6382;48.614;8.880;2022-09-13T00:15:35;14.30;99.90
12634;DHT22;6382;48.614;8.880;2022-09-13T00:18:02;13.10;99.90
12634;DHT22;6382;48.614;8.880;2022-09-13T00:20:30;13.00;99.90
12634;DHT22;6382;48.614;8.880;2022-09-13T00:22:57;13.40;99.90
12634;DHT22;6382;48.614;8.880;2022-09-13T00:25:24;14.70;99.90
12634;DHT22;6382;48.614;8.880;2022-09-13T00:27:51;11.90;99.90
12634;DHT22;6382;48.614;8.880;2022-09-13T00:30:17;14.30;99.90
12634;DHT22;6382;48.614;8.880;2022-09-13T00:32:47;15.20;99.90
12634;DHT22;6382;48.614;8.880;2022-09-13T00:35:14;14.70;99.90
12634;DHT22;6382;48.614;8.880;2022-09-13T00:37:40;14.80;99.90
12634;DHT22;6382;48.614;8.880;2022-09-13T00:40:08;14.80;99.90
12634;DHT22;6382;48.614;8.880;2022-09-13T00:42:35;12.80;99.90
12634;DHT22;6382;48.614;8.880;2022-09-13T00:50:05;12.80;99.90
12634;DHT22;6382;48.614;8.880;2022-09-13T00:52:36;13.60;99.90
12634;DHT22;6382;48.614;8.880;2022-09-13T00:55:05;14.20;99.90
12634;DHT22;6382;48.614;8.880;2022-09-13T00:57:33;12.90;99.90
12634;DHT22;6382;48.614;8.880;2022-09-13T01:00:08;15.20;99.90
12634;DHT22;6382;48.614;8.880;2022-09-13T01:02:40;12.90;99.90
12634;DHT22;6382;48.614;8.880;2022-09-13T01:05:07;15.10;99.90
12634;DHT22;6382;48.614;8.880;2022-09-13T01:07:34;12.90;99.90
12634;DHT22;6382;48.614;8.880;2022-09-13T01:10:02;14.60;99.90
12634;DHT22;6382;48.614;8.880;2022-09-13T01:12:41;11.30;99.90
12634;DHT22;6382;48.614;8.880;2022-09-13T01:15:12;12.90;99.90
12634;DHT22;6382;48.614;8.880;2022-09-13T01:17:38;14.70;99.90
12634;DHT22;6382;48.614;8.880;2022-09-13T01:20:09;14.00;99.90
12634;DHT22;6382;48.614;8.880;2022-09-13T01:25:24;12.70;99.90
12634;DHT22;6382;48.614;8.880;2022-09-13T01:28:04;13.70;99.90
12634;DHT22;6382;48.614;8.880;2022-09-13T01:30:36;12.60;99.90
12634;DHT22;6382;48.614;8.880;2022-09-13T01:40:55;12.40;99.90
12634;DHT22;6382;48.614;8.880;2022-09-13T01:49:03;12.40;99.90
12634;DHT22;6382;48.614;8.880;2022-09-13T01:51:35;12.40;99.90
12634;DHT22;6382;48.614;8.880;2022-09-13T01:56:40;12.20;99.90
12634;DHT22;6382;48.614;8.880;2022-09-13T01:59:13;12.20;99.90
12634;DHT22;6382;48.614;8.880;2022-09-13T02:02:02;12.20;99.90
12634;DHT22;6382;48.614;8.880;2022-09-13T02:04:35;12.10;99.90
12634;DHT22;6382;48.614;8.880;2022-09-13T02:07:07;12.20;99.90
12634;DHT22;6382;48.614;8.880;2022-09-13T02:09:35;12.50;99.90
12634;DHT22;6382;48.614;8.880;2022-09-13T02:12:09;13.80;99.90
12634;DHT22;6382;48.614;8.880;2022-09-13T02:14:39;12.10;99.90
12634;DHT22;6382;48.614;8.880;2022-09-13T02:17:14;14.10;99.90
12634;DHT22;6382;48.614;8.880;2022-09-13T02:19:58;12.10;99.90
12634;DHT22;6382;48.614;8.880;2022-09-13T02:22:27;11.80;99.90
12634;DHT22;6382;48.614;8.880;2022-09-13T02:25:02;14.40;99.90
12634;DHT22;6382;48.614;8.880;2022-09-13T02:27:31;12.10;99.90
12634;DHT22;6382;48.614;8.880;2022-09-13T02:30:08;12.00;99.90
12634;DHT22;6382;48.614;8.880;2022-09-13T02:32:48;12.20;99.90
12634;DHT22;6382;48.614;8.880;2022-09-13T02:37:45;12.20;99.90
12634;DHT22;6382;48.614;8.880;2022-09-13T02:40:15;12.20;99.90
12634;DHT22;6382;48.614;8.880;2022-09-13T02:42:53;12.20;99.90
12634;DHT22;6382;48.614;8.880;2022-09-13T02:45:20;12.20;99.90
12634;DHT22;6382;48.614;8.880;2022-09-13T02:47:57;13.40;99.90
12634;DHT22;6382;48.614;8.880;2022-09-13T02:55:35;12.10;99.90
12634;DHT22;6382;48.614;8.880;2022-09-13T02:58:12;14.20;99.90
12634;DHT22;6382;48.614;8.880;2022-09-13T03:00:39;12.10;99.90
12634;DHT22;6382;48.614;8.880;2022-09-13T03:03:07;12.10;99.90
12634;DHT22;6382;48.614;8.880;2022-09-13T03:05:35;12.10;99.90
12634;DHT22;6382;48.614;8.880;2022-09-13T03:08:02;13.10;99.90
12634;DHT22;6382;48.614;8.880;2022-09-13T03:28:51;12.00;99.90
12634;DHT22;6382;48.614;8.880;2022-09-13T03:33:56;12.00;99.90
12634;DHT22;6382;48.614;8.880;2022-09-13T03:36:35;12.00;99.90
12634;DHT22;6382;48.614;8.880;2022-09-13T03:39:15;12.10;99.90
12634;DHT22;6382;48.614;8.880;2022-09-13T03:41:46;12.00;99.90
12634;DHT22;6382;48.614;8.880;2022-09-13T03:44:17;12.40;99.90
12634;DHT22;6382;48.614;8.880;2022-09-13T03:46:46;12.80;99.90
12634;DHT22;6382;48.614;8.880;2022-09-13T03:49:15;12.00;99.90
12634;DHT22;6382;48.614;8.880;2022-09-13T03:51:43;11.90;99.90
12634;DHT22;6382;48.614;8.880;2022-09-13T03:54:13;12.00;99.90
12634;DHT22;6382;48.614;8.880;2022-09-13T03:56:41;12.00;99.90
12634;DHT22;6382;48.614;8.880;2022-09-13T03:59:08;11.90;99.90
12634;DHT22;6382;48.614;8.880;2022-09-13T04:01:35;11.90;99.90
12634;DHT22;6382;48.614;8.880;2022-09-13T04:04:02;11.90;99.90
12634;DHT22;6382;48.614;8.880;2022-09-13T04:06:28;11.90;99.90
12634;DHT22;6382;48.614;8.880;2022-09-13T04:08:55;11.90;99.90
12634;DHT22;6382;48.614;8.880;2022-09-13T04:11:21;12.00;99.90
12634;DHT22;6382;48.614;8.880;2022-09-13T04:13:48;12.00;99.90
12634;DHT22;6382;48.614;8.880;2022-09-13T04:16:15;12.00;99.90
12634;DHT22;6382;48.614;8.880;2022-09-13T04:18:42;13.00;99.90
12634;DHT22;6382;48.614;8.880;2022-09-13T04:21:08;12.10;99.90
12634;DHT22;6382;48.614;8.880;2022-09-13T04:23:35;12.10;99.90
12634;DHT22;6382;48.614;8.880;2022-09-13T04:26:02;13.00;99.90
12634;DHT22;6382;48.614;8.880;2022-09-13T04:28:30;12.00;99.90
12634;DHT22;6382;48.614;8.880;2022-09-13T04:30:56;12.10;99.90
12634;DHT22;6382;48.614;8.880;2022-09-13T04:33:23;12.10;99.90
12634;DHT22;6382;48.614;8.880;2022-09-13T04:35:57;12.70;99.90
12634;DHT22;6382;48.614;8.880;2022-09-13T04:38:24;12.10;99.90
12634;DHT22;6382;48.614;8.880;2022-09-13T04:40:52;12.10;99.90
12634;DHT22;6382;48.614;8.880;2022-09-13T04:43:19;12.30;99.90
12634;DHT22;6382;48.614;8.880;2022-09-13T04:45:46;12.00;99.90
12634;DHT22;6382;48.614;8.880;2022-09-13T04:48:12;12.00;99.90
12634;DHT22;6382;48.614;8.880;2022-09-13T04:50:39;12.00;99.90
12634;DHT22;6382;48.614;8.880;2022-09-13T04:53:06;12.00;99.90
12634;DHT22;6382;48.614;8.880;2022-09-13T04:55:33;12.10;99.90
12634;DHT22;6382;48.614;8.880;2022-09-13T04:58:02;13.10;99.90
12634;DHT22;6382;48.614;8.880;2022-09-13T05:00:30;12.20;99.90
12634;DHT22;6382;48.614;8.880;2022-09-13T05:02:57;12.20;99.90
12634;DHT22;6382;48.614;8.880;2022-09-13T05:05:24;12.20;99.90
12634;DHT22;6382;48.614;8.880;2022-09-13T05:07:54;12.20;99.90
12634;DHT22;6382;48.614;8.880;2022-09-13T05:10:21;12.10;99.90
12634;DHT22;6382;48.614;8.880;2022-09-13T05:12:48;12.10;99.90
12634;DHT22;6382;48.614;8.880;2022-09-13T05:15:14;13.40;99.90
12634;DHT22;6382;48.614;8.880;2022-09-13T05:17:41;11.90;99.90
12634;DHT22;6382;48.614;8.880;2022-09-13T05:20:08;11.90;99.90
12634;DHT22;6382;48.614;8.880;2022-09-13T05:22:35;11.90;99.90
12634;DHT22;6382;48.614;8.880;2022-09-13T05:25:01;11.90;99.90
12634;DHT22;6382;48.614;8.880;2022-09-13T05:27:28;11.90;99.90
12634;DHT22;6382;48.614;8.880;2022-09-13T05:29:55;12.00;99.90
12634;DHT22;6382;48.614;8.880;2022-09-13T05:32:21;12.00;99.90
12634;DHT22;6382;48.614;8.880;2022-09-13T05:34:48;12.10;99.90
12634;DHT22;6382;48.614;8.880;2022-09-13T05:37:14;12.10;99.90
12634;DHT22;6382;48.614;8.880;2022-09-13T05:39:41;12.30;99.90
12634;DHT22;6382;48.614;8.880;2022-09-13T05:42:27;12.20;99.90
12634;DHT22;6382;48.614;8.880;2022-09-13T05:44:54;13.40;99.90
12634;DHT22;6382;48.614;8.880;2022-09-13T05:47:21;12.30;99.90
12634;DHT22;6382;48.614;8.880;2022-09-13T05:49:47;12.40;99.90
12634;DHT22;6382;48.614;8.880;2022-09-13T05:52:34;12.40;99.90
12634;DHT22;6382;48.614;8.880;2022-09-13T05:55:01;12.40;99.90
12634;DHT22;6382;48.614;8.880;2022-09-13T05:57:27;12.40;99.90
12634;DHT22;6382;48.614;8.880;2022-09-13T05:59:54;12.50;99.90
12634;DHT22;6382;48.614;8.880;2022-09-13T06:02:20;12.50;99.90
12634;DHT22;6382;48.614;8.880;2022-09-13T06:04:47;12.60;99.90
12634;DHT22;6382;48.614;8.880;2022-09-13T06:07:16;12.70;99.90
12634;DHT22;6382;48.614;8.880;2022-09-13T06:09:43;12.80;99.90
12634;DHT22;6382;48.614;8.880;2022-09-13T06:12:10;13.00;99.90
12634;DHT22;6382;48.614;8.880;2022-09-13T06:14:37;13.00;99.90
12634;DHT22;6382;48.614;8.880;2022-09-13T06:17:03;13.80;99.90
12634;DHT22;6382;48.614;8.880;2022-09-13T06:19:30;13.20;99.90
12634;DHT22;6382;48.614;8.880;2022-09-13T06:21:57;13.20;99.90
12634;DHT22;6382;48.614;8.880;2022-09-13T06:24:23;13.40;99.90
12634;DHT22;6382;48.614;8.880;2022-09-13T06:26:50;13.40;99.90
12634;DHT22;6382;48.614;8.880;2022-09-13T06:29:16;13.40;99.90
12634;DHT22;6382;48.614;8.880;2022-09-13T06:31:43;13.30;99.90
12634;DHT22;6382;48.614;8.880;2022-09-13T06:34:11;13.30;99.90
12634;DHT22;6382;48.614;8.880;2022-09-13T06:36:41;13.30;99.90
12634;DHT22;6382;48.614;8.880;2022-09-13T06:39:08;13.40;99.90
12634;DHT22;6382;48.614;8.880;2022-09-13T06:41:35;13.40;99.90
12634;DHT22;6382;48.614;8.880;2022-09-13T06:44:02;13.40;99.90
12634;DHT22;6382;48.614;8.880;2022-09-13T06:46:30;13.60;99.90
12634;DHT22;6382;48.614;8.880;2022-09-13T06:49:00;14.10;99.90
12634;DHT22;6382;48.614;8.880;2022-09-13T06:51:27;13.70;99.90
12634;DHT22;6382;48.614;8.880;2022-09-13T06:53:55;13.80;99.90
12634;DHT22;6382;48.614;8.880;2022-09-13T06:56:23;13.90;99.90
12634;DHT22;6382;48.614;8.880;2022-09-13T06:58:51;14.00;99.90
12634;DHT22;6382;48.614;8.880;2022-09-13T07:03:51;14.30;99.90
12634;DHT22;6382;48.614;8.880;2022-09-13T07:06:19;14.20;99.90
12634;DHT22;6382;48.614;8.880;2022-09-13T07:08:49;14.40;99.90
12634;DHT22;6382;48.614;8.880;2022-09-13T07:11:16;15.00;99.90
12634;DHT22;6382;48.614;8.880;2022-09-13T07:13:50;15.50;99.90
12634;DHT22;6382;48.614;8.880;2022-09-13T07:16:17;14.70;99.90
12634;DHT22;6382;48.614;8.880;2022-09-13T07:18:49;15.60;99.90
12634;DHT22;6382;48.614;8.880;2022-09-13T07:21:16;15.10;99.90
12634;DHT22;6382;48.614;8.880;2022-09-13T07:23:43;16.00;99.90
12634;DHT22;6382;48.614;8.880;2022-09-13T07:26:10;15.60;99.90
12634;DHT22;6382;48.614;8.880;2022-09-13T07:28:37;15.50;99.90
12634;DHT22;6382;48.614;8.880;2022-09-13T07:33:31;15.70;99.90
12634;DHT22;6382;48.614;8.880;2022-09-13T07:35:58;15.80;99.90
12634;DHT22;6382;48.614;8.880;2022-09-13T07:38:26;16.00;99.90
12634;DHT22;6382;48.614;8.880;2022-09-13T07:40:53;16.10;99.90
12634;DHT22;6382;48.614;8.880;2022-09-13T07:43:21;16.30;99.90
12634;DHT22;6382;48.614;8.880;2022-09-13T07:45:47;17.00;99.90
12634;DHT22;6382;48.614;8.880;2022-09-13T07:48:14;16.60;99.90
12634;DHT22;6382;48.614;8.880;2022-09-13T07:50:41;17.30;99.90
12634;DHT22;6382;48.614;8.880;2022-09-13T07:53:08;16.80;99.90
12634;DHT22;6382;48.614;8.880;2022-09-13T07:55:34;17.80;99.90
12634;DHT22;6382;48.614;8.880;2022-09-13T07:58:01;17.20;99.90
12634;DHT22;6382;48.614;8.880;2022-09-13T08:00:27;17.20;99.90
12634;DHT22;6382;48.614;8.880;2022-09-13T08:02:55;17.40;99.90
12634;DHT22;6382;48.614;8.880;2022-09-13T08:05:21;17.60;99.90
12634;DHT22;6382;48.614;8.880;2022-09-13T08:07:48;17.70;99.90
12634;DHT22;6382;48.614;8.880;2022-09-13T08:10:15;18.10;99.90
12634;DHT22;6382;48.614;8.880;2022-09-13T08:12:41;18.20;99.90
12634;DHT22;6382;48.614;8.880;2022-09-13T08:15:08;18.40;99.90
12634;DHT22;6382;48.614;8.880;2022-09-13T08:17:35;18.50;99.90
12634;DHT22;6382;48.614;8.880;2022-09-13T08:20:01;18.60;99.90
12634;DHT22;6382;48.614;8.880;2022-09-13T08:22:31;18.70;99.90
12634;DHT22;6382;48.614;8.880;2022-09-13T08:24:58;18.70;99.90
12634;DHT22;6382;48.614;8.880;2022-09-13T08:27:24;19.50;99.90
12634;DHT22;6382;48.614;8.880;2022-09-13T08:29:51;18.90;99.90
12634;DHT22;6382;48.614;8.880;2022-09-13T08:32:17;20.00;99.90
12634;DHT22;6382;48.614;8.880;2022-09-13T08:34:44;19.20;99.90
12634;DHT22;6382;48.614;8.880;2022-09-13T08:39:46;19.30;99.90
12634;DHT22;6382;48.614;8.880;2022-09-13T08:42:15;20.60;99.90
12634;DHT22;6382;48.614;8.880;2022-09-13T08:44:44;19.50;99.90
12634;DHT22;6382;48.614;8.880;2022-09-13T08:49:47;19.50;99.90
12634;DHT22;6382;48.614;8.880;2022-09-13T08:54:41;20.20;99.90
12634;DHT22;6382;48.614;8.880;2022-09-13T08:57:15;20.30;99.90
12634;DHT22;6382;48.614;8.880;2022-09-13T08:59:53;19.80;99.90
12634;DHT22;6382;48.614;8.880;2022-09-13T09:05:16;19.90;99.90
12634;DHT22;6382;48.614;8.880;2022-09-13T09:07:51;20.00;99.90
12634;DHT22;6382;48.614;8.880;2022-09-13T09:10:19;20.10;99.90
12634;DHT22;6382;48.614;8.880;2022-09-13T09:12:54;22.40;99.90
12634;DHT22;6382;48.614;8.880;2022-09-13T09:15:23;20.30;99.90
12634;DHT22;6382;48.614;8.880;2022-09-13T09:22:45;20.60;99.90
12634;DHT22;6382;48.614;8.880;2022-09-13T09:25:13;20.80;99.90
12634;DHT22;6382;48.614;8.880;2022-09-13T09:27:40;20.90;99.90
12634;DHT22;6382;48.614;8.880;2022-09-13T09:30:10;21.10;99.90
12634;DHT22;6382;48.614;8.880;2022-09-13T09:33:00;24.10;99.90
12634;DHT22;6382;48.614;8.880;2022-09-13T09:40:49;21.80;99.90
12634;DHT22;6382;48.614;8.880;2022-09-13T09:43:22;23.20;99.90
12634;DHT22;6382;48.614;8.880;2022-09-13T09:45:50;22.20;99.90
12634;DHT22;6382;48.614;8.880;2022-09-13T09:48:21;23.70;99.90
12634;DHT22;6382;48.614;8.880;2022-09-13T09:50:50;22.30;99.90
12634;DHT22;6382;48.614;8.880;2022-09-13T09:53:21;24.80;99.90
12634;DHT22;6382;48.614;8.880;2022-09-13T09:58:41;23.50;99.90
12634;DHT22;6382;48.614;8.880;2022-09-13T10:04:03;20.30;99.90
12634;DHT22;6382;48.614;8.880;2022-09-13T10:06:31;22.90;99.90
12634;DHT22;6382;48.614;8.880;2022-09-13T10:09:31;23.00;99.90
12634;DHT22;6382;48.614;8.880;2022-09-13T10:11:51;23.00;99.90
12634;DHT22;6382;48.614;8.880;2022-09-13T10:14:36;24.40;99.90
12634;DHT22;6382;48.614;8.880;2022-09-13T10:17:46;23.10;99.90
12634;DHT22;6382;48.614;8.880;2022-09-13T10:20:00;23.20;99.90
12634;DHT22;6382;48.614;8.880;2022-09-13T10:22:32;23.30;99.90
12634;DHT22;6382;48.614;8.880;2022-09-13T10:25:16;23.30;99.90
12634;DHT22;6382;48.614;8.880;2022-09-13T10:27:47;23.30;99.90
12634;DHT22;6382;48.614;8.880;2022-09-13T10:32:54;23.30;99.90
12634;DHT22;6382;48.614;8.880;2022-09-13T10:35:21;23.40;99.90
12634;DHT22;6382;48.614;8.880;2022-09-13T10:37:48;23.50;99.90
12634;DHT22;6382;48.614;8.880;2022-09-13T10:40:18;23.60;99.90
12634;DHT22;6382;48.614;8.880;2022-09-13T10:42:54;24.40;99.90
12634;DHT22;6382;48.614;8.880;2022-09-13T10:45:22;23.90;99.90
12634;DHT22;6382;48.614;8.880;2022-09-13T10:47:53;24.00;99.90
12634;DHT22;6382;48.614;8.880;2022-09-13T10:52:54;24.10;99.90
12634;DHT22;6382;48.614;8.880;2022-09-13T10:57:52;25.00;99.90
12634;DHT22;6382;48.614;8.880;2022-09-13T11:00:23;24.10;99.90
12634;DHT22;6382;48.614;8.880;2022-09-13T11:02:58;24.90;99.90
12634;DHT22;6382;48.614;8.880;2022-09-13T11:05:39;25.50;99.90
12634;DHT22;6382;48.614;8.880;2022-09-13T11:14:06;24.30;99.90
12634;DHT22;6382;48.614;8.880;2022-09-13T11:23:57;25.80;99.90
12634;DHT22;6382;48.614;8.880;2022-09-13T11:26:43;24.70;99.90
12634;DHT22;6382;48.614;8.880;2022-09-13T11:31:42;25.00;99.90
12634;DHT22;6382;48.614;8.880;2022-09-13T11:36:57;25.30;99.60
12634;DHT22;6382;48.614;8.880;2022-09-13T11:39:31;25.60;99.90
12634;DHT22;6382;48.614;8.880;2022-09-13T11:44:31;25.80;99.90
12634;DHT22;6382;48.614;8.880;2022-09-13T11:47:13;25.80;99.90
12634;DHT22;6382;48.614;8.880;2022-09-13T11:52:52;26.10;99.90
12634;DHT22;6382;48.614;8.880;2022-09-13T11:55:25;26.20;99.30
12634;DHT22;6382;48.614;8.880;2022-09-13T11:58:39;26.20;94.20
12634;DHT22;6382;48.614;8.880;2022-09-13T12:00:52;26.10;93.70
12634;DHT22;6382;48.614;8.880;2022-09-13T12:03:24;26.20;92.50
12634;DHT22;6382;48.614;8.880;2022-09-13T12:06:06;26.20;95.00
12634;DHT22;6382;48.614;8.880;2022-09-13T12:08:41;26.20;93.40
12634;DHT22;6382;48.614;8.880;2022-09-13T12:11:12;26.00;92.60
12634;DHT22;6382;48.614;8.880;2022-09-13T12:13:46;25.90;92.70
12634;DHT22;6382;48.614;8.880;2022-09-13T12:16:19;26.00;92.40
12634;DHT22;6382;48.614;8.880;2022-09-13T12:18:48;25.90;92.60
12634;DHT22;6382;48.614;8.880;2022-09-13T12:21:16;28.10;92.70
12634;DHT22;6382;48.614;8.880;2022-09-13T12:23:54;26.90;91.40
12634;DHT22;6382;48.614;8.880;2022-09-13T12:26:35;26.20;89.40
12634;DHT22;6382;48.614;8.880;2022-09-13T12:29:06;26.20;90.00
12634;DHT22;6382;48.614;8.880;2022-09-13T12:31:36;27.30;85.30
12634;DHT22;6382;48.614;8.880;2022-09-13T12:34:04;28.50;88.10
12634;DHT22;6382;48.614;8.880;2022-09-13T12:39:12;26.30;89.40
12634;DHT22;6382;48.614;8.880;2022-09-13T12:57:32;26.30;84.50
12634;DHT22;6382;48.614;8.880;2022-09-13T13:00:15;26.40;83.70
12634;DHT22;6382;48.614;8.880;2022-09-13T13:02:48;26.50;86.90
12634;DHT22;6382;48.614;8.880;2022-09-13T13:07:54;26.40;84.10
12634;DHT22;6382;48.614;8.880;2022-09-13T13:10:23;26.40;84.00
12634;DHT22;6382;48.614;8.880;2022-09-13T13:12:50;28.10;87.70
12634;DHT22;6382;48.614;8.880;2022-09-13T13:17:47;26.20;85.00
12634;DHT22;6382;48.614;8.880;2022-09-13T13:23:12;26.30;80.10
12634;DHT22;6382;48.614;8.880;2022-09-13T13:25:53;26.30;79.30
12634;DHT22;6382;48.614;8.880;2022-09-13T13:31:07;26.40;80.80
12634;DHT22;6382;48.614;8.880;2022-09-13T13:36:26;26.40;81.60
12634;DHT22;6382;48.614;8.880;2022-09-13T13:38:55;26.50;83.90
12634;DHT22;6382;48.614;8.880;2022-09-13T13:46:47;26.70;83.00
12634;DHT22;6382;48.614;8.880;2022-09-13T13:52:42;26.60;81.00
12634;DHT22;6382;48.614;8.880;2022-09-13T13:59:51;26.70;70.10
12634;DHT22;6382;48.614;8.880;2022-09-13T14:02:20;26.60;76.50
12634;DHT22;6382;48.614;8.880;2022-09-13T14:10:13;26.70;76.40
12634;DHT22;6382;48.614;8.880;2022-09-13T14:12:53;26.80;77.50
12634;DHT22;6382;48.614;8.880;2022-09-13T14:15:31;26.80;74.30
12634;DHT22;6382;48.614;8.880;2022-09-13T14:20:29;26.80;71.80
12634;DHT22;6382;48.614;8.880;2022-09-13T14:25:41;26.80;76.00
12634;DHT22;6382;48.614;8.880;2022-09-13T14:28:11;28.50;78.10
12634;DHT22;6382;48.614;8.880;2022-09-13T14:30:39;26.60;80.70
12634;DHT22;6382;48.614;8.880;2022-09-13T14:33:06;26.60;78.60
12634;DHT22;6382;48.614;8.880;2022-09-13T14:35:45;26.30;81.50
12634;DHT22;6382;48.614;8.880;2022-09-13T14:40:38;26.10;76.10
12634;DHT22;6382;48.614;8.880;2022-09-13T14:43:14;26.00;78.90
12634;DHT22;6382;48.614;8.880;2022-09-13T14:45:42;26.10;80.20
12634;DHT22;6382;48.614;8.880;2022-09-13T14:48:15;26.00;83.60
12634;DHT22;6382;48.614;8.880;2022-09-13T14:50:47;26.00;80.50
12634;DHT22;6382;48.614;8.880;2022-09-13T14:53:15;26.00;79.60
12634;DHT22;6382;48.614;8.880;2022-09-13T14:55:54;26.30;79.80
12634;DHT22;6382;48.614;8.880;2022-09-13T14:58:29;26.10;84.60
12634;DHT22;6382;48.614;8.880;2022-09-13T15:01:02;26.10;81.60
12634;DHT22;6382;48.614;8.880;2022-09-13T15:03:29;26.10;83.20
12634;DHT22;6382;48.614;8.880;2022-09-13T15:05:57;26.10;84.60
12634;DHT22;6382;48.614;8.880;2022-09-13T15:10:51;26.50;83.70
12634;DHT22;6382;48.614;8.880;2022-09-13T15:13:17;26.20;83.30
12634;DHT22;6382;48.614;8.880;2022-09-13T15:15:44;26.20;86.00
12634;DHT22;6382;48.614;8.880;2022-09-13T15:20:53;26.20;84.20
12634;DHT22;6382;48.614;8.880;2022-09-13T15:23:28;26.20;87.80
12634;DHT22;6382;48.614;8.880;2022-09-13T15:26:04;26.20;86.60
12634;DHT22;6382;48.614;8.880;2022-09-13T15:31:06;26.20;86.10
12634;DHT22;6382;48.614;8.880;2022-09-13T15:33:33;26.20;86.60
12634;DHT22;6382;48.614;8.880;2022-09-13T15:38:58;26.20;85.60
12634;DHT22;6382;48.614;8.880;2022-09-13T15:41:29;26.20;86.20
12634;DHT22;6382;48.614;8.880;2022-09-13T15:43:57;26.20;86.00
12634;DHT22;6382;48.614;8.880;2022-09-13T15:46:24;26.20;85.30
12634;DHT22;6382;48.614;8.880;2022-09-13T15:48:59;26.10;87.30
12634;DHT22;6382;48.614;8.880;2022-09-13T15:51:27;26.10;86.80
12634;DHT22;6382;48.614;8.880;2022-09-13T15:53:53;26.00;88.70
12634;DHT22;6382;48.614;8.880;2022-09-13T15:56:21;25.90;88.60
12634;DHT22;6382;48.614;8.880;2022-09-13T15:58:50;26.00;87.20
12634;DHT22;6382;48.614;8.880;2022-09-13T16:01:17;25.70;90.20
12634;DHT22;6382;48.614;8.880;2022-09-13T16:03:43;25.60;90.40
12634;DHT22;6382;48.614;8.880;2022-09-13T16:06:10;25.50;90.50
12634;DHT22;6382;48.614;8.880;2022-09-13T16:08:38;25.40;91.90
12634;DHT22;6382;48.614;8.880;2022-09-13T16:11:05;26.00;91.70
12634;DHT22;6382;48.614;8.880;2022-09-13T16:13:32;25.20;91.80
12634;DHT22;6382;48.614;8.880;2022-09-13T16:15:58;25.80;92.80
12634;DHT22;6382;48.614;8.880;2022-09-13T16:18:25;25.00;93.30
12634;DHT22;6382;48.614;8.880;2022-09-13T16:20:52;25.90;93.60
12634;DHT22;6382;48.614;8.880;2022-09-13T16:23:19;24.70;93.20
12634;DHT22;6382;48.614;8.880;2022-09-13T16:25:46;24.60;93.10
12634;DHT22;6382;48.614;8.880;2022-09-13T16:28:14;24.50;92.20
12634;DHT22;6382;48.614;8.880;2022-09-13T16:30:42;24.50;93.90
12634;DHT22;6382;48.614;8.880;2022-09-13T16:33:11;24.40;94.70
12634;DHT22;6382;48.614;8.880;2022-09-13T16:35:38;24.30;95.10
12634;DHT22;6382;48.614;8.880;2022-09-13T16:38:05;24.20;94.80
12634;DHT22;6382;48.614;8.880;2022-09-13T16:40:31;24.10;95.00
12634;DHT22;6382;48.614;8.880;2022-09-13T16:42:58;24.00;95.70
12634;DHT22;6382;48.614;8.880;2022-09-13T16:45:25;23.90;95.80
12634;DHT22;6382;48.614;8.880;2022-09-13T19:10:19;20.00;99.90
12634;DHT22;6382;48.614;8.880;2022-09-13T19:12:48;20.00;99.90
12634;DHT22;6382;48.614;8.880;2022-09-13T19:15:16;19.80;99.90
12634;DHT22;6382;48.614;8.880;2022-09-13T19:20:59;17.80;99.90
12634;DHT22;6382;48.614;8.880;2022-09-13T19:23:44;19.90;99.90
12634;DHT22;6382;48.614;8.880;2022-09-13T19:26:28;18.50;99.90
12634;DHT22;6382;48.614;8.880;2022-09-13T19:29:09;19.70;99.90
12634;DHT22;6382;48.614;8.880;2022-09-13T19:32:15;19.70;99.90
12634;DHT22;6382;48.614;8.880;2022-09-13T19:35:29;19.70;99.90
12634;DHT22;6382;48.614;8.880;2022-09-13T19:39:05;19.70;99.90
12634;DHT22;6382;48.614;8.880;2022-09-13T19:42:37;19.60;99.90
12634;DHT22;6382;48.614;8.880;2022-09-13T19:45:03;19.50;99.90
12634;DHT22;6382;48.614;8.880;2022-09-13T19:47:33;19.50;99.90
12634;DHT22;6382;48.614;8.880;2022-09-13T19:50:20;19.50;99.90
12634;DHT22;6382;48.614;8.880;2022-09-13T19:52:47;19.50;99.90
